Time;durP1;ratioP1;P1;durP2;ratioP2;P2;SDS_P1;SDS_P2;PMS_P1;PMS_P2;Temp;Humidity;BMP_temperature;BMP_pressure;BME280_temperature;BME280_humidity;BME280_pressure;Samples;Min_cycle;Max_cycle;Signal;HPM_P1;HPM_P2
2022/03/08 00:00:21;;;;;;;4.47;3.42;;;;;;;;;;4915243;29;20399;-72
2022/03/08 00:02:47;;;;;;;3.70;2.55;;;;;;;;;;4914953;29;20055;-72
2022/03/08 00:05:13;;;;;;;3.28;2.50;;;;;;;;;;4914909;29;20028;-72
2022/03/08 00:07:40;;;;;;;4.00;2.75;;;;;;;;;;4915790;29;20040;-70
2022/03/08 00:10:08;;;;;;;6.38;3.08;;;;;;;;;;4918788;29;20039;-66
2022/03/08 00:12:35;;;;;;;5.45;3.58;;;;;;;;;;4918808;29;20111;-70
2022/03/08 00:15:01;;;;;;;6.80;4.03;;;;;;;;;;4918516;29;20035;-70
2022/03/08 00:17:27;;;;;;;6.90;3.60;;;;;;;;;;4918577;29;20036;-71
2022/03/08 00:19:52;;;;;;;7.43;4.53;;;;;;;;;;4918166;29;20032;-67
2022/03/08 00:22:18;;;;;;;8.07;4.00;;;;;;;;;;4918150;29;20040;-65
2022/03/08 00:24:44;;;;;;;7.85;4.35;;;;;;;;;;4906711;29;20033;-66
2022/03/08 00:27:10;;;;;;;9.27;5.15;;;;;;;;;;4899710;29;20040;-66
2022/03/08 00:29:39;;;;;;;8.23;4.70;;;;;;;;;;4899998;29;20025;-68
2022/03/08 00:32:05;;;;;;;7.18;4.25;;;;;;;;;;4899740;29;20459;-70
2022/03/08 00:34:33;;;;;;;6.13;4.28;;;;;;;;;;4898213;29;20373;-72
2022/03/08 00:36:59;;;;;;;6.28;4.38;;;;;;;;;;4899311;29;20036;-70
2022/03/08 00:39:24;;;;;;;12.50;6.72;;;;;;;;;;4899482;29;20033;-66
2022/03/08 00:41:50;;;;;;;12.00;7.10;;;;;;;;;;4899385;29;20044;-68
2022/03/08 00:44:16;;;;;;;11.88;7.90;;;;;;;;;;4899381;29;20032;-67
2022/03/08 00:46:42;;;;;;;12.35;7.13;;;;;;;;;;4899674;29;20116;-67
2022/03/08 00:49:07;;;;;;;10.48;7.30;;;;;;;;;;4899422;29;20035;-68
2022/03/08 00:51:33;;;;;;;9.63;6.72;;;;;;;;;;4899279;29;20036;-69
2022/03/08 00:53:59;;;;;;;9.95;7.15;;;;;;;;;;4899157;29;20076;-67
2022/03/08 00:56:25;;;;;;;9.68;6.53;;;;;;;;;;4899441;29;20048;-68
2022/03/08 00:58:52;;;;;;;9.50;6.40;;;;;;;;;;4891907;29;20041;-65
2022/03/08 01:01:17;;;;;;;8.43;5.95;;;;;;;;;;4884301;29;20036;-67
2022/03/08 01:03:43;;;;;;;8.63;6.03;;;;;;;;;;4899164;29;20079;-67
2022/03/08 01:06:11;;;;;;;8.52;5.43;;;;;;;;;;4898831;29;20044;-68
2022/03/08 01:08:36;;;;;;;8.52;5.53;;;;;;;;;;4899353;29;20028;-68
2022/03/08 01:11:02;;;;;;;8.80;5.20;;;;;;;;;;4898064;29;20396;-67
2022/03/08 01:13:31;;;;;;;12.75;6.10;;;;;;;;;;4899231;29;20031;-70
2022/03/08 01:15:57;;;;;;;8.77;5.53;;;;;;;;;;4898603;29;20053;-69
2022/03/08 01:18:23;;;;;;;11.52;6.88;;;;;;;;;;4893376;29;20110;-68
2022/03/08 01:20:49;;;;;;;8.23;5.70;;;;;;;;;;4879456;29;20598;-71
2022/03/08 01:23:15;;;;;;;8.88;5.95;;;;;;;;;;4880423;29;20029;-68
2022/03/08 01:25:41;;;;;;;7.57;5.53;;;;;;;;;;4880120;29;20378;-66
2022/03/08 01:28:07;;;;;;;11.18;6.40;;;;;;;;;;4878616;29;20562;-66
2022/03/08 01:30:34;;;;;;;11.45;6.03;;;;;;;;;;4880023;29;20108;-66
2022/03/08 01:33:00;;;;;;;11.88;6.60;;;;;;;;;;4878784;29;20037;-67
2022/03/08 01:35:25;;;;;;;10.15;5.93;;;;;;;;;;4879759;29;20063;-67
2022/03/08 01:37:52;;;;;;;10.52;5.82;;;;;;;;;;4888740;29;20031;-67
2022/03/08 01:40:18;;;;;;;9.18;5.85;;;;;;;;;;4897251;29;20120;-67
2022/03/08 01:42:48;;;;;;;8.30;5.53;;;;;;;;;;4884340;29;20041;-68
2022/03/08 01:45:22;;;;;;;7.32;4.80;;;;;;;;;;4878169;29;20481;-66
2022/03/08 01:47:49;;;;;;;7.63;4.22;;;;;;;;;;4879498;29;20487;-67
2022/03/08 01:50:17;;;;;;;5.72;3.83;;;;;;;;;;4880683;29;20025;-70
2022/03/08 01:52:43;;;;;;;5.53;4.00;;;;;;;;;;4879618;29;20404;-70
2022/03/08 01:55:11;;;;;;;4.63;3.03;;;;;;;;;;4881076;29;20033;-71
2022/03/08 01:57:37;;;;;;;4.53;3.00;;;;;;;;;;4880086;29;20047;-69
2022/03/08 02:00:11;;;;;;;4.38;2.78;;;;;;;;;;4880377;29;20130;-71
2022/03/08 02:02:41;;;;;;;3.40;2.38;;;;;;;;;;4880487;29;20065;-71
2022/03/08 02:05:08;;;;;;;3.85;2.35;;;;;;;;;;4879313;29;20095;-67
2022/03/08 02:07:34;;;;;;;3.08;1.98;;;;;;;;;;4880542;29;20025;-71
2022/03/08 02:10:00;;;;;;;3.33;2.20;;;;;;;;;;4880448;29;20388;-67
2022/03/08 02:12:25;;;;;;;3.45;2.45;;;;;;;;;;4880370;29;20054;-68
2022/03/08 02:14:51;;;;;;;3.70;2.38;;;;;;;;;;4880299;29;20045;-71
2022/03/08 02:17:17;;;;;;;3.88;2.72;;;;;;;;;;4880260;29;20037;-68
2022/03/08 02:19:43;;;;;;;3.70;2.40;;;;;;;;;;4880216;29;20392;-69
2022/03/08 02:22:09;;;;;;;3.53;2.35;;;;;;;;;;4880230;29;20029;-71
2022/03/08 02:24:34;;;;;;;3.70;2.70;;;;;;;;;;4879981;29;20481;-70
2022/03/08 02:27:00;;;;;;;3.92;2.40;;;;;;;;;;4879999;29;20021;-67
2022/03/08 02:29:27;;;;;;;3.28;2.13;;;;;;;;;;4879940;29;20037;-66
2022/03/08 02:31:55;;;;;;;3.78;2.60;;;;;;;;;;4880065;29;20021;-68
2022/03/08 02:34:21;;;;;;;3.67;2.55;;;;;;;;;;4879922;29;20060;-66
2022/03/08 02:37:08;;;;;;;3.53;2.70;;;;;;;;;;4880193;29;20508;-68
2022/03/08 02:39:36;;;;;;;4.30;2.95;;;;;;;;;;4879827;29;20036;-68
2022/03/08 02:42:02;;;;;;;5.40;3.90;;;;;;;;;;4880060;29;20111;-66
2022/03/08 02:44:29;;;;;;;8.68;4.00;;;;;;;;;;4879718;29;20033;-66
2022/03/08 02:46:55;;;;;;;6.35;5.10;;;;;;;;;;4879873;29;20484;-66
2022/03/08 02:49:21;;;;;;;6.10;4.85;;;;;;;;;;4879909;29;20488;-67
2022/03/08 02:51:47;;;;;;;6.18;4.63;;;;;;;;;;4879733;29;20071;-68
2022/03/08 02:54:13;;;;;;;6.65;5.35;;;;;;;;;;4892822;29;20067;-66
2022/03/08 02:56:39;;;;;;;7.05;5.07;;;;;;;;;;4898275;29;20480;-66
2022/03/08 02:59:05;;;;;;;7.15;4.78;;;;;;;;;;4897437;29;20057;-67
2022/03/08 03:01:31;;;;;;;8.02;4.35;;;;;;;;;;4896328;29;20043;-68
2022/03/08 03:03:57;;;;;;;6.65;4.32;;;;;;;;;;4892889;29;20036;-65
2022/03/08 03:06:23;;;;;;;7.68;4.45;;;;;;;;;;4898033;29;20032;-67
2022/03/08 03:08:49;;;;;;;5.55;4.13;;;;;;;;;;4897986;29;20036;-66
2022/03/08 03:11:14;;;;;;;6.25;4.60;;;;;;;;;;4897926;29;20029;-67
2022/03/08 03:13:40;;;;;;;6.65;4.50;;;;;;;;;;4897705;29;20090;-67
2022/03/08 03:16:06;;;;;;;5.25;4.10;;;;;;;;;;4897909;29;20039;-67
2022/03/08 03:18:32;;;;;;;6.80;4.90;;;;;;;;;;4897916;29;20040;-66
2022/03/08 03:20:57;;;;;;;6.63;4.75;;;;;;;;;;4897955;29;20025;-66
2022/03/08 03:23:23;;;;;;;5.63;4.25;;;;;;;;;;4897943;29;20116;-66
2022/03/08 03:25:49;;;;;;;5.50;3.70;;;;;;;;;;4897835;29;20424;-68
2022/03/08 03:28:15;;;;;;;7.05;4.22;;;;;;;;;;4897905;29;20050;-66
2022/03/08 03:30:40;;;;;;;6.63;4.72;;;;;;;;;;4897965;29;20032;-68
2022/03/08 03:33:06;;;;;;;5.63;4.20;;;;;;;;;;4897829;29;20105;-66
2022/03/08 03:35:32;;;;;;;6.70;4.38;;;;;;;;;;4897491;29;20044;-68
2022/03/08 03:37:58;;;;;;;6.15;4.30;;;;;;;;;;4897518;29;20055;-67
2022/03/08 03:40:24;;;;;;;7.00;4.63;;;;;;;;;;4897349;29;20021;-70
2022/03/08 03:42:50;;;;;;;7.93;5.22;;;;;;;;;;4898662;29;20033;-68
2022/03/08 03:45:15;;;;;;;7.63;4.78;;;;;;;;;;4901510;29;20029;-69
2022/03/08 03:47:42;;;;;;;5.57;4.35;;;;;;;;;;4901578;29;20400;-71
2022/03/08 03:50:08;;;;;;;7.53;4.78;;;;;;;;;;4901566;29;20025;-68
2022/03/08 03:52:34;;;;;;;6.28;4.35;;;;;;;;;;4901615;29;20062;-67
2022/03/08 03:55:01;;;;;;;7.40;4.70;;;;;;;;;;4901260;29;20464;-70
2022/03/08 03:57:27;;;;;;;6.03;4.55;;;;;;;;;;4901263;29;20391;-72
2022/03/08 03:59:53;;;;;;;8.77;5.72;;;;;;;;;;4901023;29;20041;-68
2022/03/08 04:02:19;;;;;;;8.15;5.90;;;;;;;;;;4900917;29;20037;-70
2022/03/08 04:04:44;;;;;;;8.20;5.43;;;;;;;;;;4900762;29;20040;-71
2022/03/08 04:07:10;;;;;;;7.50;5.45;;;;;;;;;;4899658;29;20044;-69
2022/03/08 04:09:36;;;;;;;6.10;4.57;;;;;;;;;;4900976;29;20035;-68
2022/03/08 04:12:02;;;;;;;8.93;5.07;;;;;;;;;;4901196;29;20486;-66
2022/03/08 04:14:28;;;;;;;14.82;11.65;;;;;;;;;;4900980;29;20092;-68
2022/03/08 04:16:53;;;;;;;6.28;4.10;;;;;;;;;;4900395;29;20032;-68
2022/03/08 04:19:19;;;;;;;5.15;3.47;;;;;;;;;;4900838;29;20107;-68
2022/03/08 04:21:45;;;;;;;9.90;3.67;;;;;;;;;;4900765;29;20380;-67
2022/03/08 04:24:11;;;;;;;8.07;2.60;;;;;;;;;;4900719;29;20032;-65
2022/03/08 04:26:37;;;;;;;5.03;2.97;;;;;;;;;;4900696;29;20111;-69
2022/03/08 04:29:03;;;;;;;8.20;3.22;;;;;;;;;;4900576;29;20033;-68
2022/03/08 04:31:29;;;;;;;4.78;3.47;;;;;;;;;;4900488;29;20039;-69
2022/03/08 04:33:56;;;;;;;4.80;3.20;;;;;;;;;;4900141;29;20041;-70
2022/03/08 04:36:22;;;;;;;5.38;2.85;;;;;;;;;;4900166;29;20471;-68
2022/03/08 04:38:47;;;;;;;4.43;3.03;;;;;;;;;;4899165;29;20048;-67
2022/03/08 04:41:13;;;;;;;4.25;3.08;;;;;;;;;;4901122;29;20511;-67
2022/03/08 04:43:39;;;;;;;4.68;3.13;;;;;;;;;;4900663;29;20024;-69
2022/03/08 04:46:05;;;;;;;12.60;3.55;;;;;;;;;;4900768;29;20099;-71
2022/03/08 04:48:30;;;;;;;5.43;3.33;;;;;;;;;;4900457;29;20033;-68
2022/03/08 04:50:56;;;;;;;12.30;3.28;;;;;;;;;;4900144;29;20081;-69
2022/03/08 04:53:22;;;;;;;6.15;3.00;;;;;;;;;;4899978;29;20024;-68
2022/03/08 04:55:48;;;;;;;7.07;3.08;;;;;;;;;;4898406;29;20075;-67
2022/03/08 04:58:13;;;;;;;6.38;3.22;;;;;;;;;;4899625;29;20051;-69
2022/03/08 05:00:39;;;;;;;19.08;3.95;;;;;;;;;;4898138;29;20037;-66
2022/03/08 05:03:06;;;;;;;21.17;5.10;;;;;;;;;;4899399;29;20513;-67
2022/03/08 05:05:33;;;;;;;6.28;3.42;;;;;;;;;;4899366;29;20072;-67
2022/03/08 05:07:59;;;;;;;10.15;3.67;;;;;;;;;;4899180;29;20119;-72
2022/03/08 05:10:25;;;;;;;16.05;4.07;;;;;;;;;;4898371;29;20437;-69
2022/03/08 05:12:52;;;;;;;28.38;4.32;;;;;;;;;;4899414;29;20104;-68
2022/03/08 05:15:18;;;;;;;15.90;4.63;;;;;;;;;;4897737;29;20036;-68
2022/03/08 05:17:43;;;;;;;15.32;4.07;;;;;;;;;;4895890;29;20088;-72
2022/03/08 05:20:10;;;;;;;33.17;6.05;;;;;;;;;;4897967;29;20040;-72
2022/03/08 05:22:36;;;;;;;62.58;7.93;;;;;;;;;;4903365;29;20059;-67
2022/03/08 05:25:03;;;;;;;25.13;5.47;;;;;;;;;;4916788;29;20059;-74
2022/03/08 05:27:29;;;;;;;30.67;6.63;;;;;;;;;;4912854;29;20103;-71
2022/03/08 05:29:55;;;;;;;30.23;6.35;;;;;;;;;;4899201;29;20045;-69
2022/03/08 05:32:21;;;;;;;13.63;3.97;;;;;;;;;;4899349;29;20028;-68
2022/03/08 05:34:46;;;;;;;21.27;5.38;;;;;;;;;;4898733;29;20086;-73
2022/03/08 05:37:12;;;;;;;25.88;5.72;;;;;;;;;;4902087;29;20623;-71
2022/03/08 05:39:38;;;;;;;30.75;5.60;;;;;;;;;;4917622;29;20036;-75
2022/03/08 05:42:04;;;;;;;15.05;4.45;;;;;;;;;;4914213;29;20035;-73
2022/03/08 05:44:30;;;;;;;8.20;3.92;;;;;;;;;;4896702;29;20037;-73
2022/03/08 05:46:56;;;;;;;29.45;5.10;;;;;;;;;;4898447;29;20024;-71
2022/03/08 05:49:22;;;;;;;15.82;4.38;;;;;;;;;;4901597;29;20067;-72
2022/03/08 05:51:49;;;;;;;20.10;5.18;;;;;;;;;;4901087;29;20415;-71
2022/03/08 05:54:15;;;;;;;10.70;3.88;;;;;;;;;;4898339;29;20061;-72
2022/03/08 05:56:40;;;;;;;10.02;4.07;;;;;;;;;;4898288;29;20064;-74
2022/03/08 05:59:06;;;;;;;15.68;4.35;;;;;;;;;;4896203;29;20128;-72
2022/03/08 06:01:32;;;;;;;24.73;5.53;;;;;;;;;;4898445;29;20491;-74
2022/03/08 06:03:58;;;;;;;14.65;4.40;;;;;;;;;;4895828;29;20188;-71
2022/03/08 06:06:24;;;;;;;32.10;5.88;;;;;;;;;;4897912;29;20103;-72
2022/03/08 06:08:50;;;;;;;18.75;5.85;;;;;;;;;;4896694;29;20044;-71
2022/03/08 06:11:16;;;;;;;10.32;5.05;;;;;;;;;;4896623;29;20029;-73
2022/03/08 06:13:42;;;;;;;33.70;7.45;;;;;;;;;;4897706;29;20044;-71
2022/03/08 06:16:08;;;;;;;19.75;6.50;;;;;;;;;;4897862;29;20064;-70
2022/03/08 06:18:34;;;;;;;12.65;5.13;;;;;;;;;;4898908;29;20118;-71
2022/03/08 06:20:59;;;;;;;30.98;6.53;;;;;;;;;;4896314;29;20084;-72
2022/03/08 06:23:25;;;;;;;21.90;6.20;;;;;;;;;;4896815;29;20047;-70
2022/03/08 06:25:51;;;;;;;8.95;5.30;;;;;;;;;;4897059;29;20056;-74
2022/03/08 06:28:17;;;;;;;14.82;4.95;;;;;;;;;;4897461;29;20499;-75
2022/03/08 06:30:42;;;;;;;21.88;5.15;;;;;;;;;;4897420;29;20039;-70
2022/03/08 06:33:08;;;;;;;9.55;3.35;;;;;;;;;;4897596;29;20392;-71
2022/03/08 06:35:34;;;;;;;10.90;3.03;;;;;;;;;;4897501;29;20210;-72
2022/03/08 06:38:00;;;;;;;15.77;2.95;;;;;;;;;;4898018;29;20041;-71
2022/03/08 06:40:26;;;;;;;14.77;3.17;;;;;;;;;;4898306;29;20108;-73
2022/03/08 06:42:52;;;;;;;4.75;2.38;;;;;;;;;;4898057;29;20080;-70
2022/03/08 06:45:17;;;;;;;6.70;2.25;;;;;;;;;;4897614;29;20040;-70
2022/03/08 06:47:43;;;;;;;6.25;2.10;;;;;;;;;;4897660;29;20033;-72
2022/03/08 06:50:09;;;;;;;11.50;2.38;;;;;;;;;;4898047;29;20051;-71
2022/03/08 06:52:35;;;;;;;3.55;2.25;;;;;;;;;;4898308;29;20060;-70
2022/03/08 06:55:01;;;;;;;9.65;2.72;;;;;;;;;;4898047;29;20093;-72
2022/03/08 06:57:27;;;;;;;13.43;3.08;;;;;;;;;;4897595;29;20140;-71
2022/03/08 06:59:53;;;;;;;8.10;2.80;;;;;;;;;;4897640;29;20500;-71
2022/03/08 07:02:19;;;;;;;9.43;4.45;;;;;;;;;;4897714;29;20043;-72
2022/03/08 07:04:44;;;;;;;5.30;3.10;;;;;;;;;;4895777;29;20032;-72
2022/03/08 07:07:10;;;;;;;5.40;3.15;;;;;;;;;;4897174;29;20040;-72
2022/03/08 07:09:36;;;;;;;5.50;3.08;;;;;;;;;;4897636;29;20025;-72
2022/03/08 07:12:02;;;;;;;10.02;2.38;;;;;;;;;;4897500;29;20029;-72
2022/03/08 07:14:28;;;;;;;11.45;3.42;;;;;;;;;;4897165;29;20058;-72
2022/03/08 07:16:54;;;;;;;5.03;2.08;;;;;;;;;;4897163;29;20037;-72
2022/03/08 07:19:20;;;;;;;4.43;1.90;;;;;;;;;;4896877;29;20504;-73
2022/03/08 07:21:46;;;;;;;9.38;2.67;;;;;;;;;;4896903;29;20037;-72
2022/03/08 07:24:13;;;;;;;3.03;2.20;;;;;;;;;;4896941;29;20519;-70
2022/03/08 07:26:39;;;;;;;12.82;3.92;;;;;;;;;;4897594;29;20071;-72
2022/03/08 07:29:05;;;;;;;5.32;3.20;;;;;;;;;;4897370;29;20056;-71
2022/03/08 07:31:32;;;;;;;10.27;3.42;;;;;;;;;;4897160;29;20041;-72
2022/03/08 07:33:59;;;;;;;6.88;2.70;;;;;;;;;;4895508;29;20455;-72
2022/03/08 07:36:25;;;;;;;6.18;2.88;;;;;;;;;;4896910;29;20142;-72
2022/03/08 07:38:51;;;;;;;6.38;3.17;;;;;;;;;;4897342;29;20124;-71
2022/03/08 07:41:17;;;;;;;6.10;3.55;;;;;;;;;;4897135;29;20029;-74
2022/03/08 07:43:43;;;;;;;6.13;2.90;;;;;;;;;;4897126;29;20172;-71
2022/03/08 07:46:09;;;;;;;8.60;3.10;;;;;;;;;;4897275;29;20040;-70
2022/03/08 07:48:36;;;;;;;4.65;2.90;;;;;;;;;;4897002;29;20025;-70
2022/03/08 07:51:02;;;;;;;5.03;2.55;;;;;;;;;;4896943;29;20092;-73
2022/03/08 07:53:28;;;;;;;3.40;2.53;;;;;;;;;;4896991;29;20026;-75
2022/03/08 07:55:53;;;;;;;6.30;2.70;;;;;;;;;;4896777;29;20047;-74
2022/03/08 07:58:19;;;;;;;6.10;2.83;;;;;;;;;;4896825;29;20527;-75
2022/03/08 08:00:47;;;;;;;7.28;2.35;;;;;;;;;;4896995;29;20072;-76
2022/03/08 08:03:13;;;;;;;3.47;2.30;;;;;;;;;;4896859;29;20069;-75
2022/03/08 08:05:39;;;;;;;5.18;2.55;;;;;;;;;;4897112;29;20053;-74
2022/03/08 08:08:06;;;;;;;8.32;2.63;;;;;;;;;;4897272;29;20096;-75
2022/03/08 08:10:32;;;;;;;3.25;2.20;;;;;;;;;;4897875;29;20435;-76
2022/03/08 08:12:58;;;;;;;7.20;2.28;;;;;;;;;;4894743;29;20033;-75
2022/03/08 08:15:26;;;;;;;3.42;2.40;;;;;;;;;;4896478;29;20528;-78
2022/03/08 08:17:51;;;;;;;7.10;3.47;;;;;;;;;;4896851;29;20056;-73
2022/03/08 08:20:18;;;;;;;5.28;2.17;;;;;;;;;;4896452;29;20108;-74
2022/03/08 08:22:44;;;;;;;4.50;1.98;;;;;;;;;;4896689;29;20024;-76
2022/03/08 08:25:13;;;;;;;5.40;2.95;;;;;;;;;;4896566;29;20388;-77
2022/03/08 08:27:39;;;;;;;5.53;3.05;;;;;;;;;;4895266;29;20033;-76
2022/03/08 08:30:11;;;;;;;4.30;2.70;;;;;;;;;;4898723;29;20048;-73
2022/03/08 08:32:38;;;;;;;5.40;2.65;;;;;;;;;;4899855;29;20396;-74
2022/03/08 08:35:04;;;;;;;8.10;3.20;;;;;;;;;;4899764;29;20400;-73
2022/03/08 08:37:30;;;;;;;6.18;3.30;;;;;;;;;;4898627;29;20045;-74
2022/03/08 08:39:56;;;;;;;7.00;3.58;;;;;;;;;;4899422;29;20494;-72
2022/03/08 08:42:22;;;;;;;8.75;3.95;;;;;;;;;;4899688;29;20100;-75
2022/03/08 08:44:48;;;;;;;6.63;3.38;;;;;;;;;;4899849;29;20056;-74
2022/03/08 08:47:13;;;;;;;5.13;3.20;;;;;;;;;;4899468;29;20060;-73
2022/03/08 08:49:39;;;;;;;4.78;2.88;;;;;;;;;;4899462;29;20025;-74
2022/03/08 08:52:05;;;;;;;4.05;2.33;;;;;;;;;;4898374;29;20048;-74
2022/03/08 08:54:31;;;;;;;4.35;2.70;;;;;;;;;;4898772;29;20021;-76
2022/03/08 08:56:57;;;;;;;5.07;3.50;;;;;;;;;;4899019;29;20083;-71
2022/03/08 08:59:23;;;;;;;5.38;3.30;;;;;;;;;;4899202;29;20113;-73
2022/03/08 09:01:49;;;;;;;5.10;3.42;;;;;;;;;;4898706;29;20041;-73
2022/03/08 09:04:14;;;;;;;7.18;3.63;;;;;;;;;;4899167;29;20399;-74
2022/03/08 09:06:41;;;;;;;5.15;2.92;;;;;;;;;;4899875;29;20040;-74
2022/03/08 09:09:07;;;;;;;8.63;3.42;;;;;;;;;;4899628;29;20472;-71
2022/03/08 09:11:33;;;;;;;7.10;3.80;;;;;;;;;;4899840;29;20045;-70
2022/03/08 09:13:59;;;;;;;6.57;4.10;;;;;;;;;;4899155;29;20073;-72
2022/03/08 09:16:26;;;;;;;5.32;3.38;;;;;;;;;;4898965;29;20048;-72
2022/03/08 09:18:52;;;;;;;8.90;3.75;;;;;;;;;;4899040;29;20361;-71
2022/03/08 09:21:18;;;;;;;7.55;5.03;;;;;;;;;;4898932;29;20047;-73
2022/03/08 09:23:43;;;;;;;10.05;5.43;;;;;;;;;;4898747;29;20373;-73
2022/03/08 09:26:09;;;;;;;6.20;4.40;;;;;;;;;;4898677;29;20048;-72
2022/03/08 09:28:35;;;;;;;4.57;3.30;;;;;;;;;;4898654;29;20164;-73
2022/03/08 09:31:01;;;;;;;4.47;2.88;;;;;;;;;;4898703;29;20119;-73
2022/03/08 09:33:27;;;;;;;8.15;5.07;;;;;;;;;;4898646;29;20043;-71
2022/03/08 09:35:53;;;;;;;7.45;5.47;;;;;;;;;;4898906;29;20108;-70
2022/03/08 09:38:19;;;;;;;6.40;4.50;;;;;;;;;;4898224;29;20088;-72
2022/03/08 09:40:47;;;;;;;9.43;4.82;;;;;;;;;;4897429;29;20064;-70
2022/03/08 09:43:14;;;;;;;6.22;3.38;;;;;;;;;;4898790;29;20055;-71
2022/03/08 09:45:41;;;;;;;7.32;3.33;;;;;;;;;;4898509;29;20041;-73
2022/03/08 09:48:06;;;;;;;6.60;4.18;;;;;;;;;;4898656;29;20032;-71
2022/03/08 09:50:32;;;;;;;5.65;3.70;;;;;;;;;;4898750;29;20484;-72
2022/03/08 09:52:59;;;;;;;6.82;5.07;;;;;;;;;;4898402;29;20024;-70
2022/03/08 09:55:25;;;;;;;6.20;3.95;;;;;;;;;;4899273;29;20321;-72
2022/03/08 09:57:53;;;;;;;6.35;4.10;;;;;;;;;;4898664;29;20128;-71
2022/03/08 10:00:22;;;;;;;7.40;5.32;;;;;;;;;;4898475;29;20051;-74
2022/03/08 10:02:54;;;;;;;6.45;4.38;;;;;;;;;;4898431;29;20032;-73
2022/03/08 10:05:26;;;;;;;9.45;5.90;;;;;;;;;;4898212;29;20096;-73
2022/03/08 10:08:19;;;;;;;9.82;5.63;;;;;;;;;;4897999;29;20041;-75
2022/03/08 10:10:58;;;;;;;7.57;4.80;;;;;;;;;;4898272;29;20465;-71
2022/03/08 10:13:34;;;;;;;7.25;4.45;;;;;;;;;;4898248;29;20040;-77
2022/03/08 10:16:12;;;;;;;6.85;3.85;;;;;;;;;;4898036;29;20091;-74
2022/03/08 10:18:47;;;;;;;8.13;4.60;;;;;;;;;;4898299;29;20029;-74
2022/03/08 10:21:28;;;;;;;5.45;4.25;;;;;;;;;;4897941;29;20079;-70
2022/03/08 10:23:56;;;;;;;8.25;5.43;;;;;;;;;;4897724;29;20051;-71
2022/03/08 10:26:21;;;;;;;8.25;4.07;;;;;;;;;;4898115;29;20039;-76
2022/03/08 10:28:50;;;;;;;7.93;4.45;;;;;;;;;;4898117;29;20112;-69
2022/03/08 10:31:16;;;;;;;7.05;4.45;;;;;;;;;;4898071;29;20151;-71
2022/03/08 10:33:44;;;;;;;6.20;4.20;;;;;;;;;;4898183;29;20568;-71
2022/03/08 10:36:15;;;;;;;5.10;3.70;;;;;;;;;;4897126;29;20392;-70
2022/03/08 10:39:21;;;;;;;6.55;5.03;;;;;;;;;;4897904;29;20045;-76
2022/03/08 10:41:54;;;;;;;5.82;4.10;;;;;;;;;;4897865;29;20381;-73
2022/03/08 10:44:30;;;;;;;5.57;4.15;;;;;;;;;;4897845;29;20052;-73
2022/03/08 10:47:05;;;;;;;6.07;4.50;;;;;;;;;;4897440;29;20039;-73
2022/03/08 10:49:33;;;;;;;10.27;4.70;;;;;;;;;;4897539;29;20115;-76
2022/03/08 10:52:00;;;;;;;7.75;4.40;;;;;;;;;;4897539;29;20116;-75
2022/03/08 10:54:27;;;;;;;6.00;4.10;;;;;;;;;;4897253;29;20124;-75
2022/03/08 10:56:52;;;;;;;6.10;3.72;;;;;;;;;;4897408;29;20539;-78
2022/03/08 10:59:18;;;;;;;6.15;3.72;;;;;;;;;;4897351;29;20131;-74
2022/03/08 11:01:44;;;;;;;5.65;3.40;;;;;;;;;;4896102;29;20036;-77
2022/03/08 11:04:20;;;;;;;8.77;3.60;;;;;;;;;;4897327;29;20043;-71
2022/03/08 11:06:50;;;;;;;7.18;3.33;;;;;;;;;;4897100;29;20425;-75
2022/03/08 11:09:18;;;;;;;4.60;3.50;;;;;;;;;;4896849;29;20025;-75
2022/03/08 11:11:44;;;;;;;4.70;3.20;;;;;;;;;;4897195;29;20075;-74
2022/03/08 11:14:10;;;;;;;8.45;3.38;;;;;;;;;;4896992;29;20080;-74
2022/03/08 11:16:38;;;;;;;4.53;3.10;;;;;;;;;;4896995;29;20028;-74
2022/03/08 11:19:05;;;;;;;4.22;3.00;;;;;;;;;;4897339;29;20056;-77
2022/03/08 11:21:33;;;;;;;6.75;3.60;;;;;;;;;;4897467;29;20040;-74
2022/03/08 11:24:02;;;;;;;5.80;4.13;;;;;;;;;;4897125;29;20024;-75
2022/03/08 11:26:29;;;;;;;10.32;5.43;;;;;;;;;;4897457;29;20187;-76
2022/03/08 11:28:56;;;;;;;5.20;3.90;;;;;;;;;;4896770;29;20239;-74
2022/03/08 11:31:28;;;;;;;5.85;3.60;;;;;;;;;;4897336;29;20041;-73
2022/03/08 11:34:26;;;;;;;7.37;4.73;;;;;;;;;;4897495;29;20120;-73
2022/03/08 11:36:59;;;;;;;7.63;4.80;;;;;;;;;;4897371;29;20341;-71
2022/03/08 11:39:28;;;;;;;9.00;4.05;;;;;;;;;;4897252;29;20044;-73
2022/03/08 11:42:18;;;;;;;13.52;4.30;;;;;;;;;;4897060;29;20542;-73
2022/03/08 11:45:05;;;;;;;6.70;4.15;;;;;;;;;;4896994;29;20047;-72
2022/03/08 11:47:41;;;;;;;4.40;3.08;;;;;;;;;;4897226;29;20116;-73
2022/03/08 11:50:24;;;;;;;9.10;3.70;;;;;;;;;;4896776;29;20079;-72
2022/03/08 11:53:06;;;;;;;9.05;3.72;;;;;;;;;;4896983;29;20084;-71
2022/03/08 11:55:56;;;;;;;5.53;3.13;;;;;;;;;;4896467;29;20406;-73
2022/03/08 11:58:40;;;;;;;5.82;3.47;;;;;;;;;;4896614;29;20064;-71
2022/03/08 12:01:06;;;;;;;9.18;3.50;;;;;;;;;;4896934;29;20036;-75
2022/03/08 12:03:32;;;;;;;8.75;4.28;;;;;;;;;;4897527;29;20432;-75
2022/03/08 12:06:09;;;;;;;6.05;3.67;;;;;;;;;;4900897;29;20459;-74
2022/03/08 12:08:39;;;;;;;4.72;3.13;;;;;;;;;;4900799;29;20051;-71
2022/03/08 12:11:12;;;;;;;6.82;3.00;;;;;;;;;;4900440;29;20032;-70
2022/03/08 12:13:44;;;;;;;8.45;4.63;;;;;;;;;;4900616;29;20043;-71
2022/03/08 12:16:10;;;;;;;6.20;4.30;;;;;;;;;;4900573;29;20063;-69
2022/03/08 12:18:50;;;;;;;11.68;4.30;;;;;;;;;;4900192;29;20476;-72
2022/03/08 12:21:21;;;;;;;7.15;4.55;;;;;;;;;;4900247;29;20042;-72
2022/03/08 12:23:59;;;;;;;8.73;6.00;;;;;;;;;;4896148;29;20044;-69
2022/03/08 12:26:48;;;;;;;6.45;4.80;;;;;;;;;;4880952;29;20477;-73
2022/03/08 12:29:17;;;;;;;11.73;5.93;;;;;;;;;;4884372;29;20068;-73
2022/03/08 12:31:57;;;;;;;7.40;5.70;;;;;;;;;;4898037;29;20140;-71
2022/03/08 12:34:32;;;;;;;6.18;5.13;;;;;;;;;;4902841;29;20036;-75
2022/03/08 12:37:20;;;;;;;8.38;5.50;;;;;;;;;;4915507;29;20029;-70
2022/03/08 12:39:58;;;;;;;7.25;4.72;;;;;;;;;;4916880;29;20144;-72
2022/03/08 12:42:42;;;;;;;9.73;5.30;;;;;;;;;;4895040;29;20535;-70
2022/03/08 12:45:20;;;;;;;7.47;5.85;;;;;;;;;;4900135;29;20032;-72
2022/03/08 12:47:52;;;;;;;7.32;5.30;;;;;;;;;;4894810;29;20058;-69
2022/03/08 12:50:28;;;;;;;6.80;4.60;;;;;;;;;;4897636;29;20092;-69
2022/03/08 12:52:56;;;;;;;7.38;4.80;;;;;;;;;;4897256;29;20029;-69
2022/03/08 12:55:46;;;;;;;9.30;7.47;;;;;;;;;;4893128;29;20035;-67
2022/03/08 12:58:18;;;;;;;7.63;4.90;;;;;;;;;;4896798;29;20404;-68
2022/03/08 13:00:51;;;;;;;9.68;6.10;;;;;;;;;;4897489;29;20119;-71
2022/03/08 13:03:21;;;;;;;10.85;5.93;;;;;;;;;;4898415;29;20064;-70
2022/03/08 13:05:53;;;;;;;10.05;5.60;;;;;;;;;;4897837;29;20519;-69
2022/03/08 13:08:20;;;;;;;9.60;7.03;;;;;;;;;;4898434;29;20115;-75
2022/03/08 13:10:50;;;;;;;9.18;5.70;;;;;;;;;;4888999;29;20077;-68
2022/03/08 13:13:19;;;;;;;8.65;5.82;;;;;;;;;;4898219;29;20050;-72
2022/03/08 13:15:48;;;;;;;7.10;4.53;;;;;;;;;;4896176;29;20514;-70
2022/03/08 13:18:28;;;;;;;7.93;5.53;;;;;;;;;;4899204;29;20048;-73
2022/03/08 13:20:59;;;;;;;7.63;6.28;;;;;;;;;;4897784;29;20480;-69
2022/03/08 13:23:28;;;;;;;7.53;6.47;;;;;;;;;;4901483;29;20130;-69
2022/03/08 13:25:58;;;;;;;8.00;5.45;;;;;;;;;;4918204;29;20047;-71
2022/03/08 13:28:30;;;;;;;8.88;6.28;;;;;;;;;;4914518;29;21380;-72
2022/03/08 13:30:58;;;;;;;9.65;7.20;;;;;;;;;;4898952;29;20028;-72
2022/03/08 13:33:36;;;;;;;7.45;5.93;;;;;;;;;;4898736;29;20036;-74
2022/03/08 13:36:09;;;;;;;9.77;4.78;;;;;;;;;;4898769;29;20084;-73
2022/03/08 13:38:58;;;;;;;8.68;5.50;;;;;;;;;;4892843;29;20037;-74
2022/03/08 13:41:30;;;;;;;6.95;4.63;;;;;;;;;;4893429;29;20506;-72
2022/03/08 13:44:01;;;;;;;7.85;5.70;;;;;;;;;;4898568;29;20037;-72
2022/03/08 13:46:33;;;;;;;7.75;4.78;;;;;;;;;;4897982;29;20029;-73
2022/03/08 13:49:15;;;;;;;11.93;5.80;;;;;;;;;;4898794;29;20044;-73
2022/03/08 13:51:41;;;;;;;8.52;6.28;;;;;;;;;;4898957;29;20041;-73
2022/03/08 13:54:09;;;;;;;11.23;6.07;;;;;;;;;;4898591;29;20093;-71
2022/03/08 13:56:49;;;;;;;7.05;5.80;;;;;;;;;;4898877;29;20105;-70
2022/03/08 13:59:33;;;;;;;6.68;5.00;;;;;;;;;;4898293;29;20040;-72
2022/03/08 14:02:00;;;;;;;7.13;6.03;;;;;;;;;;4898492;29;20158;-75
2022/03/08 14:04:27;;;;;;;8.85;5.78;;;;;;;;;;4898794;29;20028;-76
2022/03/08 14:06:53;;;;;;;8.60;5.57;;;;;;;;;;4898538;29;20097;-75
2022/03/08 14:09:20;;;;;;;8.05;5.95;;;;;;;;;;4898870;29;20081;-68
2022/03/08 14:11:58;;;;;;;7.70;5.93;;;;;;;;;;4896779;29;20078;-76
2022/03/08 14:14:24;;;;;;;8.05;5.32;;;;;;;;;;4897952;29;20132;-77
2022/03/08 14:16:50;;;;;;;6.45;5.72;;;;;;;;;;4896860;29;20058;-79
2022/03/08 14:19:23;;;;;;;7.78;5.00;;;;;;;;;;4892100;29;20441;-79
2022/03/08 14:21:50;;;;;;;6.63;5.37;;;;;;;;;;4883646;29;20079;-74
2022/03/08 14:24:16;;;;;;;7.70;5.63;;;;;;;;;;4878309;29;20359;-71
2022/03/08 14:27:07;;;;;;;7.15;5.30;;;;;;;;;;4878771;29;20565;-74
2022/03/08 14:29:35;;;;;;;8.63;5.43;;;;;;;;;;4879211;29;20485;-73
2022/03/08 14:32:04;;;;;;;6.55;4.63;;;;;;;;;;4883437;29;20039;-73
2022/03/08 14:34:31;;;;;;;6.88;4.70;;;;;;;;;;4897754;29;20115;-71
2022/03/08 14:37:03;;;;;;;7.35;5.63;;;;;;;;;;4897813;29;20063;-77
2022/03/08 14:39:34;;;;;;;6.47;4.60;;;;;;;;;;4897779;29;20149;-74
2022/03/08 14:42:15;;;;;;;7.63;5.60;;;;;;;;;;4897632;29;20025;-75
2022/03/08 14:44:43;;;;;;;6.30;5.22;;;;;;;;;;4897616;29;20071;-77
2022/03/08 14:47:23;;;;;;;7.72;5.50;;;;;;;;;;4897889;29;20103;-71